Time;durP1;ratioP1;P1;durP2;ratioP2;P2;SDS_P1;SDS_P2;PMS_P1;PMS_P2;Temp;Humidity;BMP_temperature;BMP_pressure;BME280_temperature;BME280_humidity;BME280_pressure;Samples;Min_cycle;Max_cycle;Signal;HPM_P1;HPM_P2
2022/11/03 00:01:09;;;;;;;97.40;91.53;;;;;;;15.35;74.16;101414.47;5013771;28;102275;-52
2022/11/03 00:03:37;;;;;;;98.10;92.00;;;;;;;15.35;73.93;101409.00;5014884;28;102350;-52
2022/11/03 00:06:05;;;;;;;99.10;93.10;;;;;;;15.35;73.87;101409.00;5017974;28;102223;-52
2022/11/03 00:08:34;;;;;;;93.75;88.05;;;;;;;15.35;73.98;101409.81;5015060;28;104223;-52
2022/11/03 00:11:08;;;;;;;93.40;87.78;;;;;;;15.35;74.05;101418.03;5014955;28;102061;-53
2022/11/03 00:13:35;;;;;;;97.63;91.63;;;;;;;15.37;73.93;101420.50;5004511;28;102076;-52
2022/11/03 00:16:02;;;;;;;101.97;95.95;;;;;;;15.35;74.10;101407.06;5017377;28;102182;-52
2022/11/03 00:18:29;;;;;;;98.68;92.70;;;;;;;15.35;73.93;101414.47;5016044;28;104189;-52
2022/11/03 00:21:02;;;;;;;93.22;87.63;;;;;;;15.36;73.96;101410.63;5016857;28;102266;-52
2022/11/03 00:23:30;;;;;;;97.20;91.28;;;;;;;15.35;74.08;101409.00;5005901;28;102457;-53
2022/11/03 00:26:06;;;;;;;94.82;89.15;;;;;;;15.36;73.69;101407.88;5016609;28;102762;-52
2022/11/03 00:28:33;;;;;;;97.50;91.63;;;;;;;15.35;73.93;101414.47;5015476;28;104125;-52
2022/11/03 00:31:04;;;;;;;94.40;88.82;;;;;;;15.37;73.96;101415.03;5015425;28;102415;-52
2022/11/03 00:33:32;;;;;;;98.45;92.60;;;;;;;15.37;73.45;101415.03;5014724;28;102464;-52
2022/11/03 00:36:00;;;;;;;94.97;89.35;;;;;;;15.37;73.68;101415.84;5017635;28;102386;-52
2022/11/03 00:38:27;;;;;;;95.00;89.33;;;;;;;15.35;73.84;101406.25;5015274;28;103908;-52
2022/11/03 00:40:58;;;;;;;93.10;87.43;;;;;;;15.34;74.04;101402.69;5004178;28;102318;-52
2022/11/03 00:43:27;;;;;;;96.28;90.35;;;;;;;15.36;73.76;101405.13;5015243;28;102297;-52
2022/11/03 00:45:55;;;;;;;101.72;95.63;;;;;;;15.36;73.72;101413.34;5004875;28;102174;-52
2022/11/03 00:48:31;;;;;;;101.93;95.78;;;;;;;15.36;73.83;101416.09;5015240;28;104158;-52
2022/11/03 00:51:03;;;;;;;94.23;88.60;;;;;;;15.34;74.12;101418.31;5007170;28;103191;-52
2022/11/03 00:53:31;;;;;;;91.80;86.15;;;;;;;15.37;73.58;101417.75;5012223;28;102342;-52
2022/11/03 00:55:58;;;;;;;95.85;90.03;;;;;;;15.37;73.79;101415.03;5006220;28;102449;-52
2022/11/03 00:58:24;;;;;;;97.93;92.05;;;;;;;15.38;73.91;101416.66;5009742;28;103892;-52
2022/11/03 01:00:58;;;;;;;101.95;95.88;;;;;;;15.37;73.53;101412.28;5010787;28;102188;-52
2022/11/03 01:03:25;;;;;;;92.10;86.68;;;;;;;15.37;73.39;101406.78;5015342;28;102613;-52
2022/11/03 01:08:38;;;;;;;98.25;92.47;;;;;;;15.36;73.75;101413.34;5014449;28;103940;-52
2022/11/03 01:13:55;;;;;;;95.43;89.80;;;;;;;15.35;73.57;101414.47;5004876;28;102381;-52
2022/11/03 01:16:22;;;;;;;96.60;90.88;;;;;;;15.35;73.92;101414.47;5016156;28;102629;-52
2022/11/03 01:18:49;;;;;;;95.20;89.43;;;;;;;15.37;73.51;101415.84;5015157;28;103993;-52
2022/11/03 01:21:16;;;;;;;95.55;89.90;;;;;;;15.35;73.58;101403.50;5015423;28;102514;-52
2022/11/03 01:23:44;;;;;;;95.72;89.85;;;;;;;15.35;73.83;101409.81;5008867;28;101891;-52
2022/11/03 01:26:12;;;;;;;95.68;90.00;;;;;;;15.36;73.81;101416.09;5015793;28;102897;-52
2022/11/03 01:28:41;;;;;;;93.45;87.97;;;;;;;15.35;73.85;101420.78;5013548;28;103896;-52
2022/11/03 01:31:11;;;;;;;98.07;92.28;;;;;;;15.35;73.87;101417.22;5014860;28;102403;-53
2022/11/03 01:33:37;;;;;;;100.10;94.28;;;;;;;15.36;73.75;101424.31;5001653;28;102689;-52
2022/11/03 01:36:04;;;;;;;92.03;86.53;;;;;;;15.36;73.46;101427.06;5014805;28;102454;-52
2022/11/03 01:38:32;;;;;;;92.95;87.50;;;;;;;15.36;73.73;101427.06;5001683;28;104246;-53
2022/11/03 01:41:04;;;;;;;101.78;95.80;;;;;;;15.36;73.52;101429.81;5011870;28;102264;-52
2022/11/03 01:43:31;;;;;;;99.60;93.88;;;;;;;15.35;73.84;101429.00;5013224;28;102422;-52
2022/11/03 01:46:03;;;;;;;92.95;87.43;;;;;;;15.35;73.60;101422.69;5015003;28;102113;-52
2022/11/03 01:48:32;;;;;;;98.40;92.68;;;;;;;15.34;74.02;101429.28;5014431;28;103949;-52
2022/11/03 01:51:00;;;;;;;89.18;83.70;;;;;;;15.35;73.46;101426.25;5000546;28;102081;-52
2022/11/03 01:53:29;;;;;;;100.70;94.60;;;;;;;15.34;73.92;101427.38;5013831;28;101954;-52
2022/11/03 01:55:56;;;;;;;98.80;92.95;;;;;;;15.34;73.54;101421.88;5016322;28;102097;-52
2022/11/03 01:58:27;;;;;;;102.88;96.93;;;;;;;15.36;73.76;101432.56;5008515;28;103999;-52
2022/11/03 02:00:58;;;;;;;103.15;97.10;;;;;;;15.36;73.79;101435.28;5013103;28;102317;-52
2022/11/03 02:03:25;;;;;;;96.80;91.05;;;;;;;15.35;73.53;101430.94;5003711;28;102287;-52
2022/11/03 02:05:54;;;;;;;100.18;94.30;;;;;;;15.35;73.98;101433.66;5015744;28;102064;-52
2022/11/03 02:08:25;;;;;;;96.75;91.05;;;;;;;15.35;74.05;101442.72;5013935;28;103864;-52
2022/11/03 02:10:54;;;;;;;98.85;92.97;;;;;;;15.36;73.48;101440.78;5009898;28;102012;-52
2022/11/03 02:13:23;;;;;;;98.43;92.80;;;;;;;15.37;73.90;101440.50;5010953;28;102371;-52
2022/11/03 02:15:52;;;;;;;;;;;;;;;15.37;73.63;101440.50;5016320;28;102171;-52
2022/11/03 02:18:21;;;;;;;90.97;85.50;;;;;;;15.36;73.40;101451.75;5012200;28;103928;-52
2022/11/03 02:21:00;;;;;;;92.10;86.75;;;;;;;15.36;73.49;101451.75;5015063;28;102207;-52
2022/11/03 02:23:31;;;;;;;;;;;;;;;15.35;73.43;101450.94;5014312;28;102354;-52
2022/11/03 02:26:00;;;;;;;86.25;81.05;;;;;;;15.38;73.40;101463.28;5015607;28;102070;-52
2022/11/03 02:28:30;;;;;;;90.70;85.35;;;;;;;15.37;73.80;101458.91;5012628;28;104030;-52
2022/11/03 02:31:07;;;;;;;93.88;88.28;;;;;;;15.37;73.70;101456.16;5014053;28;101895;-52
2022/11/03 02:33:47;;;;;;;96.18;90.57;;;;;;;15.37;73.89;101458.91;4998991;28;102433;-52
2022/11/03 02:36:19;;;;;;;87.38;82.22;;;;;;;15.37;73.63;101467.94;5015573;28;102183;-52
2022/11/03 02:38:53;;;;;;;94.80;89.20;;;;;;;15.37;73.68;101467.13;5013839;28;103958;-52
2022/11/03 02:41:23;;;;;;;91.53;85.97;;;;;;;15.36;73.38;101465.47;5013342;28;102248;-52
2022/11/03 02:43:51;;;;;;;96.85;91.18;;;;;;;15.38;73.55;101460.53;5014115;28;102259;-52
2022/11/03 02:46:18;;;;;;;88.43;83.10;;;;;;;15.38;73.47;101468.75;5015564;28;102221;-52
2022/11/03 02:48:47;;;;;;;94.25;88.75;;;;;;;15.36;73.37;101454.50;5013486;28;103541;-52
2022/11/03 02:51:14;;;;;;;95.67;90.20;;;;;;;15.36;73.42;101462.72;5012388;28;102341;-52
2022/11/03 02:53:50;;;;;;;99.82;93.93;;;;;;;15.36;73.43;101470.94;5012241;28;102649;-52
2022/11/03 02:56:22;;;;;;;86.80;81.57;;;;;;;15.36;73.85;101470.94;5014132;28;102104;-52
2022/11/03 02:58:56;;;;;;;91.55;86.25;;;;;;;15.34;73.84;101468.50;5014653;28;103924;-52
2022/11/03 03:01:27;;;;;;;93.40;87.82;;;;;;;15.35;73.57;101467.41;5015010;28;102312;-52
2022/11/03 03:03:58;;;;;;;92.78;87.22;;;;;;;15.35;73.79;101480.28;5014350;28;102923;-52
2022/11/03 03:06:35;;;;;;;90.07;84.68;;;;;;;15.33;73.81;101477.84;5016364;28;102606;-52
2022/11/03 03:09:09;;;;;;;94.53;88.80;;;;;;;15.34;73.97;101474.00;5013742;28;104200;-52
2022/11/03 03:11:40;;;;;;;98.18;92.47;;;;;;;15.34;74.07;101478.66;5015730;28;102653;-52
2022/11/03 03:14:12;;;;;;;95.13;89.57;;;;;;;15.33;73.79;101475.09;5013967;28;102665;-52
2022/11/03 03:16:54;;;;;;;99.60;93.75;;;;;;;15.33;74.10;101479.78;5015047;28;102863;-52
2022/11/03 03:19:27;;;;;;;93.43;88.07;;;;;;;15.33;74.24;101482.53;5014160;28;103913;-52
2022/11/03 03:21:57;;;;;;;92.30;86.97;;;;;;;15.33;74.13;101483.34;5015217;28;102493;-52
2022/11/03 03:24:32;;;;;;;92.65;87.30;;;;;;;15.31;74.10;101479.22;5013947;28;102026;-53
2022/11/03 03:27:02;;;;;;;92.35;86.88;;;;;;;15.33;74.17;101482.53;5017149;28;102329;-52
2022/11/03 03:29:36;;;;;;;90.28;84.93;;;;;;;15.32;74.52;101480.84;5015196;28;104108;-52
2022/11/03 03:32:07;;;;;;;89.38;84.22;;;;;;;15.32;74.45;101476.19;5017303;28;101943;-52
2022/11/03 03:34:36;;;;;;;97.55;91.82;;;;;;;15.32;74.32;101480.84;5011725;28;102021;-52
2022/11/03 03:37:05;;;;;;;92.72;87.25;;;;;;;15.32;74.23;101480.84;5012010;28;102521;-52
2022/11/03 03:39:36;;;;;;;107.38;101.15;;;;;;;15.32;74.16;101480.84;5015654;28;104465;-52
2022/11/03 03:42:07;;;;;;;94.78;89.18;;;;;;;15.32;74.35;101480.84;5017643;28;101967;-52
2022/11/03 03:44:38;;;;;;;93.22;87.80;;;;;;;15.31;74.44;101480.03;5016584;28;102301;-52
2022/11/03 03:47:11;;;;;;;97.78;92.10;;;;;;;15.32;74.37;101475.38;5017358;28;102138;-52
2022/11/03 03:49:37;;;;;;;99.82;93.97;;;;;;;15.32;74.02;101469.88;5006233;28;104204;-52
2022/11/03 03:52:04;;;;;;;95.80;90.18;;;;;;;15.32;74.54;101469.88;5017287;28;101959;-52
2022/11/03 03:54:30;;;;;;;91.07;85.75;;;;;;;15.31;74.36;101474.56;5016363;28;101958;-52
2022/11/03 03:57:01;;;;;;;90.95;85.47;;;;;;;15.32;73.96;101469.88;5017819;28;102151;-52
2022/11/03 03:59:29;;;;;;;91.38;86.00;;;;;;;15.32;74.15;101475.38;5015098;28;103966;-52
2022/11/03 04:01:58;;;;;;;92.53;87.10;;;;;;;15.32;74.52;101489.09;5012846;28;102583;-52
2022/11/03 04:04:24;;;;;;;89.78;84.47;;;;;;;15.31;74.01;101477.31;5015936;28;102398;-52
2022/11/03 04:07:45;;;;;;;100.38;94.57;;;;;;;15.32;74.20;101480.84;5016343;28;105416;-52
2022/11/03 04:09:38;;;;;;;96.55;90.88;;;;;;;15.31;74.14;101484.72;5000540;28;104060;-52
2022/11/03 04:23:24;;;;;;;86.65;81.50;;;;;;;15.32;74.33;101502.78;5016074;28;102294;-52
2022/11/03 04:25:54;;;;;;;91.60;86.18;;;;;;;15.31;74.36;101491.00;5011104;28;102320;-52
2022/11/03 04:28:21;;;;;;;97.20;91.53;;;;;;;15.31;73.95;101495.69;5014300;28;102360;-52
2022/11/03 04:30:48;;;;;;;97.97;92.18;;;;;;;15.30;74.21;101499.53;5009842;28;104019;-52
2022/11/03 04:33:17;;;;;;;96.78;91.07;;;;;;;15.31;74.51;101498.44;5016287;28;102596;-52
2022/11/03 04:35:45;;;;;;;95.18;89.55;;;;;;;15.30;74.50;101503.09;5015937;28;102220;-52
2022/11/03 04:38:22;;;;;;;91.82;86.47;;;;;;;15.30;74.52;101505.84;5016230;28;102368;-52
2022/11/03 04:40:51;;;;;;;92.03;86.70;;;;;;;15.31;74.41;101517.63;5015469;28;104005;-53
2022/11/03 04:43:20;;;;;;;86.78;81.68;;;;;;;15.32;74.15;101513.75;5015348;28;102848;-52
2022/11/03 04:45:48;;;;;;;87.70;82.50;;;;;;;15.31;73.99;101509.41;5010338;28;102140;-52
2022/11/03 04:48:20;;;;;;;95.30;89.75;;;;;;;15.30;74.66;101510.50;5008079;28;102336;-52
2022/11/03 04:50:48;;;;;;;87.70;82.45;;;;;;;15.30;74.31;101521.47;5006260;28;104036;-53
2022/11/03 04:53:17;;;;;;;83.32;78.15;;;;;;;15.31;74.47;101518.44;5013716;28;102566;-52
2022/11/03 04:55:45;;;;;;;86.20;81.00;;;;;;;15.31;74.49;101514.88;5011074;28;102161;-52
2022/11/03 04:58:18;;;;;;;87.83;82.63;;;;;;;15.31;74.50;101518.44;5016749;28;102331;-52
2022/11/03 05:00:44;;;;;;;86.90;81.72;;;;;;;15.30;74.19;101516.81;5009624;28;103958;-53
2022/11/03 05:03:16;;;;;;;91.10;85.80;;;;;;;15.32;74.10;101527.47;5015659;28;102340;-52
2022/11/03 05:05:44;;;;;;;94.75;89.18;;;;;;;15.31;74.44;101526.66;5015028;28;102248;-52
2022/11/03 05:08:11;;;;;;;92.20;86.90;;;;;;;15.31;74.18;101526.66;5016939;28;102114;-52
2022/11/03 05:10:38;;;;;;;89.32;84.05;;;;;;;15.31;74.24;101523.91;5014763;28;103911;-52
2022/11/03 05:13:14;;;;;;;91.28;85.85;;;;;;;15.31;74.54;101526.66;5015641;28;101987;-52
2022/11/03 05:15:43;;;;;;;88.00;82.78;;;;;;;15.32;74.14;101535.72;5013875;28;102288;-52
2022/11/03 05:18:17;;;;;;;87.18;81.88;;;;;;;15.31;74.62;101534.88;5015646;28;102043;-52
2022/11/03 05:20:50;;;;;;;87.45;82.38;;;;;;;15.31;74.28;101534.06;5014670;28;108033;-53
2022/11/03 05:23:19;;;;;;;89.00;83.78;;;;;;;15.31;73.96;101545.84;5014818;28;102184;-53
2022/11/03 05:25:48;;;;;;;88.57;83.35;;;;;;;15.32;74.39;101552.16;5013703;28;102428;-53
2022/11/03 05:28:21;;;;;;;95.68;90.13;;;;;;;15.31;74.42;101545.03;5016156;28;102271;-52
2022/11/03 05:30:49;;;;;;;88.28;82.95;;;;;;;15.31;74.25;101545.03;5013626;28;104027;-52
2022/11/03 05:33:21;;;;;;;87.68;82.45;;;;;;;15.32;74.46;101535.72;5013430;28;102590;-52
2022/11/03 05:35:49;;;;;;;90.10;84.65;;;;;;;15.31;74.05;101540.38;5011900;28;102561;-55
2022/11/03 05:38:19;;;;;;;88.05;82.78;;;;;;;15.33;74.35;101542.84;5003046;28;102438;-54
2022/11/03 05:40:50;;;;;;;90.55;85.13;;;;;;;15.32;74.16;101546.69;5010423;28;105706;-54
2022/11/03 05:43:17;;;;;;;94.15;88.68;;;;;;;15.32;73.66;101542.00;5006727;28;102137;-54
2022/11/03 05:45:44;;;;;;;88.43;83.28;;;;;;;15.32;74.42;101552.16;5006943;28;102698;-54
2022/11/03 05:48:17;;;;;;;90.90;85.57;;;;;;;15.32;74.05;101552.16;5008667;28;101995;-54
2022/11/03 05:50:44;;;;;;;87.40;82.22;;;;;;;15.31;74.27;101556.00;5009262;28;105758;-54
2022/11/03 05:53:24;;;;;;;90.55;85.03;;;;;;;15.32;74.26;101560.38;5013570;28;102562;-54
2022/11/03 05:55:51;;;;;;;89.55;84.32;;;;;;;15.32;74.32;101563.13;5013900;28;102229;-54
2022/11/03 05:58:23;;;;;;;89.55;84.40;;;;;;;15.32;74.45;101568.63;5013649;28;102321;-54
2022/11/03 06:00:50;;;;;;;91.82;86.47;;;;;;;15.32;74.22;101572.19;5007197;28;103993;-54
2022/11/03 06:03:22;;;;;;;93.85;88.35;;;;;;;15.33;74.34;101564.78;5009235;28;104843;-54
2022/11/03 06:05:49;;;;;;;91.63;86.30;;;;;;;15.34;74.07;101580.13;5011813;28;103924;-54
2022/11/03 06:08:20;;;;;;;88.88;83.63;;;;;;;15.33;74.16;101571.09;5011894;28;102091;-54
2022/11/03 06:10:50;;;;;;;85.63;80.57;;;;;;;15.33;74.02;101573.84;5010874;28;104667;-54
2022/11/03 06:13:20;;;;;;;88.88;83.68;;;;;;;15.34;74.18;101577.41;5007754;28;102408;-54
2022/11/03 06:15:54;;;;;;;87.47;82.28;;;;;;;15.34;73.93;101578.22;4998567;28;103044;-54
2022/11/03 06:18:24;;;;;;;90.63;85.13;;;;;;;15.35;74.42;101568.06;5004092;28;102385;-54
2022/11/03 06:20:56;;;;;;;89.15;83.82;;;;;;;15.34;74.17;101567.25;4997439;28;103924;-54
2022/11/03 06:23:24;;;;;;;95.38;89.82;;;;;;;15.35;74.25;101568.06;5013030;28;102211;-54
2022/11/03 06:25:52;;;;;;;;;;;;;;;15.33;74.18;101568.34;5011385;28;102586;-55
2022/11/03 06:28:23;;;;;;;79.47;74.75;;;;;;;15.35;74.52;101576.28;5015122;28;102704;-54
2022/11/03 06:30:49;;;;;;;83.82;78.88;;;;;;;15.36;74.50;101575.19;4999297;28;108203;-55
2022/11/03 06:33:20;;;;;;;94.70;89.22;;;;;;;15.35;74.56;101584.50;5012610;28;102396;-55
2022/11/03 06:35:50;;;;;;;95.53;89.85;;;;;;;15.34;74.56;101578.22;5014715;28;102313;-55
2022/11/03 06:38:20;;;;;;;94.05;88.63;;;;;;;15.35;74.48;101579.84;5018072;28;102176;-55
2022/11/03 06:40:51;;;;;;;96.45;90.93;;;;;;;15.35;74.46;101579.84;5015835;28;104009;-54
2022/11/03 06:43:20;;;;;;;94.72;89.07;;;;;;;15.36;74.26;101575.19;5018592;28;102000;-54
2022/11/03 06:45:53;;;;;;;106.90;100.85;;;;;;;15.36;74.41;101569.69;5019021;28;101827;-54
2022/11/03 06:48:23;;;;;;;106.47;100.38;;;;;;;15.36;74.05;101580.66;5018944;28;102382;-54
2022/11/03 06:50:51;;;;;;;99.18;93.47;;;;;;;15.37;74.05;101574.09;5016837;28;103998;-54
2022/11/03 06:53:21;;;;;;;93.15;87.28;;;;;;;15.37;74.45;101577.66;5008170;28;102366;-54
2022/11/03 06:55:50;;;;;;;103.97;98.03;;;;;;;15.37;74.24;101576.84;5008809;28;102274;-54
2022/11/03 06:58:25;;;;;;;95.47;89.95;;;;;;;15.37;74.25;101576.84;5011443;28;102244;-54
2022/11/03 07:00:55;;;;;;;93.05;87.72;;;;;;;15.37;73.92;101572.16;5017077;28;103964;-54
2022/11/03 07:03:26;;;;;;;97.22;91.63;;;;;;;15.37;73.94;101574.09;5015988;28;102371;-54
2022/11/03 07:05:56;;;;;;;101.68;95.93;;;;;;;15.36;74.10;101558.72;5010321;28;102285;-54
2022/11/03 07:08:25;;;;;;;103.40;97.60;;;;;;;15.35;74.13;101563.38;5013860;28;102203;-54
2022/11/03 07:11:01;;;;;;;98.20;92.63;;;;;;;15.37;74.41;101571.34;5013802;28;103917;-55
2022/11/03 07:13:29;;;;;;;104.97;99.00;;;;;;;15.38;74.39;101575.72;5014255;28;102657;-57
2022/11/03 07:15:57;;;;;;;100.18;94.30;;;;;;;15.35;74.27;101566.13;5014531;28;102389;-54
2022/11/03 07:18:27;;;;;;;109.30;103.25;;;;;;;15.37;74.28;101571.34;5016123;28;102262;-55
2022/11/03 07:20:56;;;;;;;101.90;96.18;;;;;;;15.37;74.52;101566.69;5014775;28;103769;-54
2022/11/03 07:23:25;;;;;;;99.53;93.88;;;;;;;15.37;74.10;101569.41;4997756;28;102481;-54
2022/11/03 07:25:55;;;;;;;99.88;94.18;;;;;;;15.38;74.53;101578.47;5011482;28;102114;-54
2022/11/03 07:28:28;;;;;;;95.07;89.70;;;;;;;15.37;74.21;101577.66;5015294;28;102478;-54
2022/11/03 07:30:55;;;;;;;97.25;91.75;;;;;;;15.38;74.39;101578.47;5012920;28;104011;-54
2022/11/03 07:33:25;;;;;;;96.68;91.18;;;;;;;15.38;74.19;101578.47;5014096;28;102199;-54
2022/11/03 07:35:53;;;;;;;101.47;95.72;;;;;;;15.38;74.02;101573.78;5007713;28;102016;-54
2022/11/03 07:38:21;;;;;;;103.90;97.95;;;;;;;15.38;74.14;101571.06;5006645;28;102199;-54
2022/11/03 07:40:49;;;;;;;96.70;91.20;;;;;;;15.38;74.42;101572.97;5006566;28;104038;-54
2022/11/03 07:43:18;;;;;;;97.35;91.85;;;;;;;15.38;74.01;101575.72;5008429;28;102714;-54
2022/11/03 07:45:50;;;;;;;99.63;93.95;;;;;;;15.38;74.19;101562.00;5013923;28;102168;-55
2022/11/03 07:48:19;;;;;;;100.32;94.75;;;;;;;15.37;74.12;101560.38;5010989;28;102100;-54
2022/11/03 07:50:46;;;;;;;;;;;;;;;15.38;74.19;101562.81;5008399;28;103902;-54
2022/11/03 07:53:18;;;;;;;95.55;90.18;;;;;;;15.38;74.11;101559.25;5014230;28;102235;-54
2022/11/03 07:55:45;;;;;;;94.45;88.88;;;;;;;15.38;74.14;101559.25;5015596;28;102399;-54
2022/11/03 07:58:34;;;;;;;104.38;98.35;;;;;;;15.37;74.30;101557.63;5014919;28;102278;-54
2022/11/03 08:01:15;;;;;;;94.82;89.50;;;;;;;15.39;74.54;101563.63;5004974;28;104294;-54
2022/11/03 08:03:46;;;;;;;93.60;88.28;;;;;;;15.39;74.53;101564.47;5006312;28;102419;-54
2022/11/03 08:06:12;;;;;;;94.22;88.82;;;;;;;15.39;74.16;101569.13;5014557;28;102029;-54
2022/11/03 08:08:39;;;;;;;100.07;94.45;;;;;;;15.39;74.05;101574.63;5009719;28;102500;-54
2022/11/03 08:11:06;;;;;;;99.70;94.15;;;;;;;15.40;74.58;101570.78;5011088;28;103904;-54
2022/11/03 08:13:33;;;;;;;96.47;91.07;;;;;;;15.40;74.66;101570.78;5011852;28;102156;-54
2022/11/03 08:15:59;;;;;;;93.03;87.78;;;;;;;15.38;74.26;101568.31;5013649;28;102796;-54
2022/11/03 08:18:27;;;;;;;98.53;92.95;;;;;;;15.40;74.56;101559.81;5016518;28;102136;-54
2022/11/03 08:20:54;;;;;;;90.25;85.25;;;;;;;15.39;74.25;101558.16;5014931;28;104174;-54
2022/11/03 08:23:21;;;;;;;92.13;86.93;;;;;;;15.39;74.15;101552.66;5015066;28;101975;-54
2022/11/03 08:25:47;;;;;;;97.28;91.70;;;;;;;15.39;74.13;101548.00;5013433;28;102262;-54
2022/11/03 08:28:14;;;;;;;95.63;90.20;;;;;;;15.38;74.37;101559.25;5012848;28;102400;-54
2022/11/03 08:30:41;;;;;;;101.45;95.53;;;;;;;15.40;74.34;101554.34;5013771;28;103847;-54
2022/11/03 08:33:07;;;;;;;87.55;82.43;;;;;;;15.40;74.16;101557.06;5015209;28;102260;-54
2022/11/03 08:35:35;;;;;;;96.95;91.35;;;;;;;15.41;74.26;101560.63;5007586;28;102366;-54
2022/11/03 08:38:02;;;;;;;102.63;96.85;;;;;;;15.41;74.52;101558.72;5016020;28;102518;-54
2022/11/03 08:40:28;;;;;;;92.90;87.55;;;;;;;15.41;74.43;101555.97;5014670;28;103893;-54
2022/11/03 08:42:55;;;;;;;100.90;95.13;;;;;;;15.41;74.24;101568.84;5004584;28;102297;-54
2022/11/03 08:45:21;;;;;;;100.18;94.40;;;;;;;15.41;74.35;101557.88;5014041;28;102720;-54
2022/11/03 08:47:48;;;;;;;100.82;94.97;;;;;;;15.41;74.01;101568.84;5016426;28;102522;-54
2022/11/03 08:50:15;;;;;;;95.80;90.38;;;;;;;15.39;73.98;101558.97;5013672;28;104028;-54
2022/11/03 08:52:43;;;;;;;97.53;91.97;;;;;;;15.40;74.02;101548.84;5006800;28;101926;-54
2022/11/03 08:55:10;;;;;;;101.40;95.70;;;;;;;15.41;73.96;101555.97;5003646;28;102072;-54
2022/11/03 08:57:36;;;;;;;98.43;92.82;;;;;;;15.41;74.46;101550.47;5008655;28;102195;-54
2022/11/03 09:00:04;;;;;;;99.05;93.43;;;;;;;15.40;74.34;101554.34;5002581;28;104987;-54
2022/11/03 09:02:31;;;;;;;97.47;91.95;;;;;;;15.42;74.08;101557.59;5007499;28;102903;-54
2022/11/03 09:04:57;;;;;;;93.32;88.05;;;;;;;15.42;74.22;101546.63;5013995;28;102615;-54
2022/11/03 09:07:24;;;;;;;96.70;91.00;;;;;;;15.43;74.14;101552.94;5013811;28;102563;-54
2022/11/03 09:09:52;;;;;;;96.95;91.53;;;;;;;15.42;74.18;101545.81;5011680;28;103881;-54
2022/11/03 09:12:19;;;;;;;101.50;95.83;;;;;;;15.42;74.29;101552.09;5008883;28;101927;-54
2022/11/03 09:14:52;;;;;;;92.18;86.82;;;;;;;15.42;74.20;101541.13;5010007;28;102365;-54
2022/11/03 09:17:20;;;;;;;101.43;95.70;;;;;;;15.40;74.00;101543.34;5014891;28;102670;-54
2022/11/03 09:19:47;;;;;;;95.68;89.85;;;;;;;15.41;74.20;101539.50;5013267;28;104382;-54
2022/11/03 09:22:14;;;;;;;103.57;97.70;;;;;;;15.42;74.09;101532.09;5008232;28;103304;-54
2022/11/03 09:24:40;;;;;;;102.07;95.95;;;;;;;15.43;74.40;101526.31;5007023;28;102461;-54
2022/11/03 09:27:09;;;;;;;95.60;89.93;;;;;;;15.44;74.37;101529.91;5008489;28;102664;-54
2022/11/03 09:29:36;;;;;;;102.72;96.50;;;;;;;15.45;73.81;101529.59;5005570;28;104089;-56
2022/11/03 09:32:04;;;;;;;99.38;93.18;;;;;;;15.46;73.79;101527.66;5012846;28;102556;-54
2022/11/03 09:34:30;;;;;;;98.55;92.35;;;;;;;15.46;73.99;101527.66;5004312;28;102176;-55
2022/11/03 09:36:57;;;;;;;101.97;95.75;;;;;;;15.45;73.86;101523.31;5008226;28;102371;-55
2022/11/03 09:39:23;;;;;;;105.28;99.03;;;;;;;15.45;74.17;101524.13;5012218;28;103815;-54
2022/11/03 09:41:51;;;;;;;98.70;92.50;;;;;;;15.45;73.89;101518.63;5010012;28;102487;-54
2022/11/03 09:44:19;;;;;;;105.75;99.28;;;;;;;15.47;73.84;101516.44;5006025;28;104856;-54
2022/11/03 09:46:47;;;;;;;99.63;93.20;;;;;;;15.45;74.02;101507.66;5012566;28;102350;-54
2022/11/03 09:49:14;;;;;;;87.50;81.78;;;;;;;15.49;73.13;101511.47;5009075;28;104059;-54
2022/11/03 09:51:42;;;;;;;97.53;90.60;;;;;;;15.49;73.32;101511.47;5011490;28;102129;-55
2022/11/03 09:54:12;;;;;;;93.57;87.53;;;;;;;15.48;73.29;101506.28;5007630;28;102421;-55
2022/11/03 09:56:38;;;;;;;96.35;90.15;;;;;;;15.49;73.16;101507.91;5001166;28;102914;-52
2022/11/03 09:59:14;;;;;;;96.35;90.13;;;;;;;15.48;72.54;101511.75;5003054;28;103898;-52
2022/11/03 10:01:44;;;;;;;93.15;86.55;;;;;;;15.48;72.03;101501.59;5009553;28;102084;-53
2022/11/03 10:04:11;;;;;;;94.97;88.68;;;;;;;15.48;72.49;101504.34;5006700;28;102402;-52
2022/11/03 10:06:39;;;;;;;99.07;92.65;;;;;;;15.46;72.58;101503.81;5010320;28;102277;-52
2022/11/03 10:09:11;;;;;;;92.00;85.80;;;;;;;15.48;72.63;101500.78;5008193;28;104422;-53
2022/11/03 10:11:37;;;;;;;99.95;93.03;;;;;;;15.46;72.85;101492.81;5008097;28;103027;-52
2022/11/03 10:14:05;;;;;;;99.88;93.32;;;;;;;15.48;72.98;101498.03;5009257;28;102531;-53
2022/11/03 10:16:34;;;;;;;97.93;91.60;;;;;;;15.46;73.00;101492.00;5009916;28;102280;-53
2022/11/03 10:19:02;;;;;;;98.93;92.00;;;;;;;15.47;72.75;101494.50;5008952;28;103940;-53
2022/11/03 10:21:32;;;;;;;103.15;96.30;;;;;;;15.46;73.29;101492.00;5008502;28;102558;-53
2022/11/03 10:23:59;;;;;;;99.65;93.25;;;;;;;15.45;73.39;101485.72;5008710;28;102181;-53
2022/11/03 10:26:42;;;;;;;97.20;91.00;;;;;;;15.47;73.24;101483.53;5008909;28;102331;-53
2022/11/03 10:29:18;;;;;;;98.20;91.97;;;;;;;15.47;72.97;101472.53;5008844;28;103925;-52
2022/11/03 10:31:50;;;;;;;93.68;87.63;;;;;;;15.48;72.92;101476.91;5007693;28;102616;-52
2022/11/03 10:34:27;;;;;;;92.43;86.45;;;;;;;15.48;73.35;101468.69;5007219;28;102560;-53
2022/11/03 10:37:13;;;;;;;93.80;87.80;;;;;;;15.47;72.94;101456.09;5014864;28;103636;-53
2022/11/03 10:39:40;;;;;;;101.10;94.57;;;;;;;15.49;72.80;101458.53;5010662;28;103991;-53
2022/11/03 10:42:19;;;;;;;89.95;84.22;;;;;;;15.47;73.23;101447.84;5006139;28;101992;-53
2022/11/03 10:44:46;;;;;;;99.40;93.05;;;;;;;15.48;73.37;101446.75;5008843;28;102367;-53
2022/11/03 10:47:32;;;;;;;94.65;88.70;;;;;;;15.47;73.38;101447.00;5006683;28;102974;-53
2022/11/03 10:50:17;;;;;;;91.50;85.65;;;;;;;15.47;73.16;101436.88;5003730;28;103705;-53
2022/11/03 10:52:46;;;;;;;89.07;83.45;;;;;;;15.46;72.98;101437.97;5010944;28;102367;-53
2022/11/03 10:55:12;;;;;;;97.55;91.47;;;;;;;15.46;73.19;101432.47;4998634;28;102528;-53
2022/11/03 10:57:39;;;;;;;91.13;85.63;;;;;;;15.46;73.25;101417.94;5008337;28;102741;-53
2022/11/03 11:00:11;;;;;;;103.25;96.75;;;;;;;15.44;73.09;101426.47;5005614;28;103837;-53
2022/11/03 11:02:41;;;;;;;87.63;81.82;;;;;;;15.46;72.87;101421.50;5009873;28;102417;-53
2022/11/03 11:05:14;;;;;;;96.88;90.90;;;;;;;15.46;72.79;101416.03;5010797;28;102177;-53
2022/11/03 11:07:43;;;;;;;89.95;84.50;;;;;;;15.47;72.92;101416.84;5011525;28;103404;-53
2022/11/03 11:10:13;;;;;;;96.45;90.45;;;;;;;15.46;72.72;101416.03;5005998;28;104022;-53
2022/11/03 11:13:24;;;;;;;95.65;89.85;;;;;;;15.47;72.78;101416.84;5011584;28;102667;-53
2022/11/03 11:15:54;;;;;;;86.45;80.90;;;;;;;15.45;72.95;101408.91;5013763;28;102302;-53
2022/11/03 11:19:08;;;;;;;94.07;87.97;;;;;;;15.46;72.75;101413.28;5015321;28;102457;-53
2022/11/03 11:22:00;;;;;;;85.22;79.95;;;;;;;15.45;72.65;101408.91;4984509;28;107793;-53
2022/11/03 11:24:56;;;;;;;89.30;83.45;;;;;;;15.45;72.25;101403.41;5014931;28;102515;-53
2022/11/03 11:27:58;;;;;;;95.82;89.82;;;;;;;15.44;72.64;101401.78;4970943;28;102497;-53
2022/11/03 11:30:58;;;;;;;91.43;85.90;;;;;;;15.45;72.86;101400.69;4949996;28;102297;-53
2022/11/03 11:33:26;;;;;;;89.22;83.85;;;;;;;15.45;72.72;101403.41;4973468;28;108091;-53